Time;durP1;ratioP1;P1;durP2;ratioP2;P2;SDS_P1;SDS_P2;PMS_P1;PMS_P2;Temp;Humidity;BMP_temperature;BMP_pressure;BME280_temperature;BME280_humidity;BME280_pressure;Samples;Min_cycle;Max_cycle;Signal;HPM_P1;HPM_P2
2022/04/04 00:00:21;;;;;;;0.75;0.40;;;;;;;;;;2074052;28;20490;-81
2022/04/04 00:01:41;;;;;;;0.45;0.30;;;;;;;;;;2064889;28;20507;-80
2022/04/04 00:03:00;;;;;;;0.50;0.30;;;;;;;;;;2062832;28;20031;-80
2022/04/04 00:04:20;;;;;;;1.63;0.50;;;;;;;;;;2072324;28;20022;-78
2022/04/04 00:05:43;;;;;;;1.40;0.38;;;;;;;;;;2075429;28;20053;-79
2022/04/04 00:07:02;;;;;;;1.88;0.30;;;;;;;;;;2073374;28;20026;-80
2022/04/04 00:08:21;;;;;;;1.13;0.50;;;;;;;;;;2073795;28;20034;-79
2022/04/04 00:09:41;;;;;;;0.32;0.32;;;;;;;;;;2063494;28;20074;-79
2022/04/04 00:11:00;;;;;;;1.70;0.35;;;;;;;;;;2070523;28;20026;-79
2022/04/04 00:12:20;;;;;;;0.65;0.30;;;;;;;;;;2071849;28;20100;-79
2022/04/04 00:13:39;;;;;;;1.52;0.40;;;;;;;;;;2073200;28;20112;-79
2022/04/04 00:14:58;;;;;;;1.92;0.20;;;;;;;;;;2063687;28;20038;-79
2022/04/04 00:16:17;;;;;;;0.30;0.20;;;;;;;;;;2069459;28;20049;-80
2022/04/04 00:17:36;;;;;;;0.57;0.35;;;;;;;;;;2063705;28;20423;-79
2022/04/04 00:18:55;;;;;;;0.32;0.30;;;;;;;;;;2062732;28;20504;-79
2022/04/04 00:20:14;;;;;;;6.55;0.57;;;;;;;;;;2061712;28;21319;-80
2022/04/04 00:21:33;;;;;;;0.82;0.60;;;;;;;;;;2061493;28;20034;-79
2022/04/04 00:22:52;;;;;;;2.00;0.43;;;;;;;;;;2058510;28;20105;-80
2022/04/04 00:24:11;;;;;;;0.40;0.40;;;;;;;;;;2060532;28;20058;-80
2022/04/04 00:25:29;;;;;;;1.65;0.60;;;;;;;;;;2060195;28;20060;-79
2022/04/04 00:26:48;;;;;;;0.98;0.30;;;;;;;;;;2059596;28;20026;-81
2022/04/04 00:28:08;;;;;;;2.08;0.30;;;;;;;;;;2061744;28;20412;-79
2022/04/04 00:29:27;;;;;;;0.30;0.30;;;;;;;;;;2070487;28;20022;-80
2022/04/04 00:30:46;;;;;;;0.50;0.30;;;;;;;;;;2064262;28;20062;-80
2022/04/04 00:32:05;;;;;;;2.35;0.30;;;;;;;;;;2070417;28;20037;-80
2022/04/04 00:33:25;;;;;;;1.05;0.40;;;;;;;;;;2066141;28;20427;-79
2022/04/04 00:34:44;;;;;;;1.38;0.30;;;;;;;;;;2062199;28;20030;-80
2022/04/04 00:36:02;;;;;;;0.40;0.40;;;;;;;;;;2063171;28;20551;-79
2022/04/04 00:37:22;;;;;;;0.30;0.30;;;;;;;;;;2062108;28;20030;-79
2022/04/04 00:38:40;;;;;;;0.70;0.30;;;;;;;;;;2063052;28;20038;-79
2022/04/04 00:40:02;;;;;;;1.25;0.38;;;;;;;;;;2069535;28;20022;-80
2022/04/04 00:41:21;;;;;;;0.77;0.30;;;;;;;;;;2067181;28;20030;-79
2022/04/04 00:42:40;;;;;;;1.38;0.40;;;;;;;;;;2061947;28;20051;-80
2022/04/04 00:43:59;;;;;;;1.52;0.40;;;;;;;;;;2071230;28;20034;-80
2022/04/04 00:45:18;;;;;;;1.95;0.40;;;;;;;;;;2064625;28;20027;-80
2022/04/04 00:46:40;;;;;;;0.35;0.20;;;;;;;;;;2063082;28;20034;-80
2022/04/04 00:47:59;;;;;;;0.43;0.43;;;;;;;;;;2061514;28;20031;-80
2022/04/04 00:49:19;;;;;;;0.52;0.40;;;;;;;;;;2063569;28;20026;-80
2022/04/04 00:50:38;;;;;;;0.90;0.30;;;;;;;;;;2071603;28;20049;-79
2022/04/04 00:51:57;;;;;;;0.52;0.30;;;;;;;;;;2066665;28;20030;-80
2022/04/04 00:53:16;;;;;;;4.30;0.40;;;;;;;;;;2062829;28;20109;-79
2022/04/04 00:54:37;;;;;;;0.65;0.30;;;;;;;;;;2075496;28;20469;-79
2022/04/04 00:55:56;;;;;;;1.42;0.50;;;;;;;;;;2073885;28;20038;-81
2022/04/04 00:57:16;;;;;;;1.08;0.70;;;;;;;;;;2071053;28;20026;-79
2022/04/04 00:58:36;;;;;;;0.30;0.30;;;;;;;;;;2068572;28;20034;-79
2022/04/04 00:59:55;;;;;;;0.57;0.30;;;;;;;;;;2070116;28;20026;-79
2022/04/04 01:01:15;;;;;;;0.80;0.40;;;;;;;;;;2069964;28;20034;-80
2022/04/04 01:02:34;;;;;;;0.38;0.38;;;;;;;;;;2071287;28;20030;-81
2022/04/04 01:03:55;;;;;;;0.88;0.43;;;;;;;;;;2068597;28;20113;-79
2022/04/04 01:05:15;;;;;;;0.55;0.47;;;;;;;;;;2069832;28;20026;-79
2022/04/04 01:06:34;;;;;;;1.80;0.47;;;;;;;;;;2071137;28;20423;-80
2022/04/04 01:07:54;;;;;;;3.13;0.55;;;;;;;;;;2070709;28;20066;-79
2022/04/04 01:09:15;;;;;;;1.45;0.40;;;;;;;;;;2072525;28;20038;-79
2022/04/04 01:10:34;;;;;;;1.40;0.40;;;;;;;;;;2071019;28;20038;-79
2022/04/04 01:12:00;;;;;;;0.98;0.40;;;;;;;;;;2080436;28;20146;-80
2022/04/04 01:13:20;;;;;;;1.23;0.40;;;;;;;;;;2074343;28;20038;-79
2022/04/04 01:14:41;;;;;;;1.30;0.77;;;;;;;;;;2071751;28;20034;-80
2022/04/04 01:16:00;;;;;;;0.75;0.40;;;;;;;;;;2071162;28;20493;-79
2022/04/04 01:17:19;;;;;;;1.25;0.52;;;;;;;;;;2079435;28;20025;-80
2022/04/04 01:18:39;;;;;;;1.85;0.50;;;;;;;;;;2073054;28;20030;-80
2022/04/04 01:19:58;;;;;;;2.08;0.60;;;;;;;;;;2062993;28;20038;-80
2022/04/04 01:21:20;;;;;;;0.70;0.50;;;;;;;;;;2075170;28;20033;-81
2022/04/04 01:22:40;;;;;;;0.32;0.32;;;;;;;;;;2074133;28;20426;-79
2022/04/04 01:24:00;;;;;;;1.25;0.43;;;;;;;;;;2078854;28;20479;-80
2022/04/04 01:25:23;;;;;;;0.50;0.50;;;;;;;;;;2073861;28;20034;-80
2022/04/04 01:26:46;;;;;;;0.75;0.40;;;;;;;;;;2070841;28;20062;-79
2022/04/04 01:28:05;;;;;;;0.30;0.30;;;;;;;;;;2072927;28;20030;-80
2022/04/04 01:29:24;;;;;;;1.05;0.30;;;;;;;;;;2070389;28;20026;-79
2022/04/04 01:30:48;;;;;;;1.02;0.57;;;;;;;;;;2068009;28;20113;-79
2022/04/04 01:32:07;;;;;;;1.17;0.40;;;;;;;;;;2078344;28;20034;-79
2022/04/04 01:33:26;;;;;;;0.55;0.50;;;;;;;;;;2081032;28;20026;-80
2022/04/04 01:34:44;;;;;;;1.65;0.52;;;;;;;;;;2074626;28;20099;-80
2022/04/04 01:36:03;;;;;;;2.05;0.80;;;;;;;;;;2069551;28;20034;-80
2022/04/04 01:37:22;;;;;;;0.60;0.47;;;;;;;;;;2070663;28;20022;-79
2022/04/04 01:38:41;;;;;;;2.08;0.63;;;;;;;;;;2068598;28;20026;-79
2022/04/04 01:40:06;;;;;;;1.02;0.90;;;;;;;;;;2073624;28;20046;-79
2022/04/04 01:41:25;;;;;;;1.63;0.70;;;;;;;;;;2070915;28;20026;-80
2022/04/04 01:43:02;;;;;;;0.75;0.50;;;;;;;;;;2070302;28;20033;-79
2022/04/04 01:44:21;;;;;;;1.13;0.50;;;;;;;;;;2070792;28;20058;-80
2022/04/04 01:47:18;;;;;;;1.58;0.50;;;;;;;;;;2080813;28;20112;-80
2022/04/04 01:48:37;;;;;;;1.77;0.68;;;;;;;;;;2072356;28;20034;-80
2022/04/04 01:49:56;;;;;;;4.82;0.77;;;;;;;;;;2071317;28;20022;-79
2022/04/04 01:51:16;;;;;;;2.72;0.60;;;;;;;;;;2076826;28;20021;-79
2022/04/04 01:52:34;;;;;;;0.45;0.45;;;;;;;;;;2072760;28;20085;-79
2022/04/04 01:53:53;;;;;;;0.43;0.30;;;;;;;;;;2068920;28;20026;-81
2022/04/04 01:55:12;;;;;;;1.05;0.60;;;;;;;;;;2079098;28;20145;-79
2022/04/04 01:56:32;;;;;;;0.70;0.55;;;;;;;;;;2072684;28;20030;-79
2022/04/04 01:57:51;;;;;;;2.00;0.50;;;;;;;;;;2068795;28;20113;-79
2022/04/04 01:59:09;;;;;;;0.70;0.60;;;;;;;;;;2069519;28;20030;-80
2022/04/04 02:00:29;;;;;;;0.80;0.40;;;;;;;;;;2070461;28;20026;-80
2022/04/04 02:01:48;;;;;;;0.57;0.55;;;;;;;;;;2070158;28;20123;-80
2022/04/04 02:03:07;;;;;;;1.02;0.50;;;;;;;;;;2070974;28;20116;-79
2022/04/04 02:04:25;;;;;;;1.13;0.45;;;;;;;;;;2070206;28;20495;-79
2022/04/04 02:05:45;;;;;;;0.47;0.40;;;;;;;;;;2079086;28;20029;-80
2022/04/04 02:07:05;;;;;;;0.57;0.43;;;;;;;;;;2072130;28;20105;-80
2022/04/04 02:08:25;;;;;;;0.98;0.70;;;;;;;;;;2070606;28;20070;-79
2022/04/04 02:09:43;;;;;;;1.80;0.57;;;;;;;;;;2069230;28;20038;-80
2022/04/04 02:11:04;;;;;;;1.63;0.55;;;;;;;;;;2070912;28;20034;-80
2022/04/04 02:12:23;;;;;;;0.70;0.40;;;;;;;;;;2069349;28;20034;-79
2022/04/04 02:13:43;;;;;;;1.55;0.60;;;;;;;;;;2078815;28;20022;-79
2022/04/04 02:15:02;;;;;;;2.08;0.60;;;;;;;;;;2080843;28;20034;-79
2022/04/04 02:16:21;;;;;;;0.75;0.52;;;;;;;;;;2071791;28;20034;-80
2022/04/04 02:17:41;;;;;;;0.77;0.40;;;;;;;;;;2070133;28;20034;-80
2022/04/04 02:19:00;;;;;;;2.97;0.50;;;;;;;;;;2077794;28;20033;-80
2022/04/04 02:20:19;;;;;;;0.88;0.80;;;;;;;;;;2081895;28;20429;-81
2022/04/04 02:21:38;;;;;;;5.45;0.60;;;;;;;;;;2072435;28;20519;-79
2022/04/04 02:22:57;;;;;;;4.47;0.75;;;;;;;;;;2071521;28;20515;-79
2022/04/04 02:24:16;;;;;;;1.38;0.70;;;;;;;;;;2068783;28;20030;-80
2022/04/04 02:25:35;;;;;;;2.30;0.50;;;;;;;;;;2070531;28;20022;-79
2022/04/04 02:26:54;;;;;;;1.17;0.60;;;;;;;;;;2069306;28;20034;-80
2022/04/04 02:28:13;;;;;;;1.70;1.00;;;;;;;;;;2079482;28;20014;-80
2022/04/04 02:29:34;;;;;;;0.50;0.50;;;;;;;;;;2074602;28;20383;-79
2022/04/04 02:30:53;;;;;;;1.05;0.52;;;;;;;;;;2072687;28;20113;-79
2022/04/04 02:32:12;;;;;;;1.35;0.63;;;;;;;;;;2071513;28;20037;-79
2022/04/04 02:33:31;;;;;;;1.17;0.43;;;;;;;;;;2080862;28;20029;-79
2022/04/04 02:34:58;;;;;;;0.85;0.57;;;;;;;;;;2075806;28;20025;-79
2022/04/04 02:36:17;;;;;;;0.93;0.60;;;;;;;;;;2072936;28;20480;-80
2022/04/04 02:37:36;;;;;;;2.78;0.52;;;;;;;;;;2071178;28;20030;-79
2022/04/04 02:38:55;;;;;;;1.92;0.50;;;;;;;;;;2071629;28;20030;-79
2022/04/04 02:40:16;;;;;;;0.77;0.45;;;;;;;;;;2070056;28;20022;-79
2022/04/04 02:41:35;;;;;;;2.13;0.68;;;;;;;;;;2070585;28;20034;-79
2022/04/04 02:42:55;;;;;;;0.98;0.80;;;;;;;;;;2078581;28;20529;-79
2022/04/04 02:44:14;;;;;;;1.65;0.88;;;;;;;;;;2081933;28;20037;-79
2022/04/04 02:45:33;;;;;;;1.63;0.47;;;;;;;;;;2072425;28;20033;-80
2022/04/04 02:46:52;;;;;;;1.98;0.70;;;;;;;;;;2068699;28;20065;-80
2022/04/04 02:48:10;;;;;;;1.90;0.80;;;;;;;;;;2070421;28;20026;-80
2022/04/04 02:49:29;;;;;;;3.80;0.70;;;;;;;;;;2068250;28;20502;-79
2022/04/04 02:50:48;;;;;;;2.40;0.60;;;;;;;;;;2069601;28;20034;-80
2022/04/04 02:52:07;;;;;;;2.63;0.50;;;;;;;;;;2076538;28;20186;-81
2022/04/04 02:53:26;;;;;;;2.25;0.85;;;;;;;;;;2082581;28;20026;-79
2022/04/04 02:54:45;;;;;;;2.92;0.60;;;;;;;;;;2072871;28;20467;-79
2022/04/04 02:57:42;;;;;;;1.65;0.70;;;;;;;;;;2080403;28;20493;-80
2022/04/04 02:59:01;;;;;;;2.75;0.50;;;;;;;;;;2073405;28;20037;-79
2022/04/04 03:00:23;;;;;;;5.15;0.90;;;;;;;;;;2069674;28;20018;-80
2022/04/04 03:01:48;;;;;;;4.10;0.55;;;;;;;;;;2077336;28;20434;-79
2022/04/04 03:03:07;;;;;;;0.90;0.60;;;;;;;;;;2073223;28;20412;-81
2022/04/04 03:04:27;;;;;;;2.80;0.70;;;;;;;;;;2070202;28;20523;-83
2022/04/04 03:05:46;;;;;;;1.15;0.57;;;;;;;;;;2070786;28;20038;-84
2022/04/04 03:07:09;;;;;;;0.88;0.60;;;;;;;;;;2067700;28;20074;-84
2022/04/04 03:08:28;;;;;;;2.17;0.50;;;;;;;;;;2070579;28;20030;-84
2022/04/04 03:09:46;;;;;;;1.10;0.60;;;;;;;;;;2069012;28;20034;-84
2022/04/04 03:11:05;;;;;;;3.10;0.77;;;;;;;;;;2078221;28;20026;-84
2022/04/04 03:12:24;;;;;;;3.35;0.80;;;;;;;;;;2072577;28;20440;-84
2022/04/04 03:13:43;;;;;;;1.95;0.40;;;;;;;;;;2070500;28;20120;-84
2022/04/04 03:15:02;;;;;;;4.40;0.90;;;;;;;;;;2077995;28;20495;-83
2022/04/04 03:16:21;;;;;;;0.75;0.50;;;;;;;;;;2073991;28;20038;-84
2022/04/04 03:17:42;;;;;;;1.48;0.82;;;;;;;;;;2069063;28;20423;-83
2022/04/04 03:19:01;;;;;;;6.70;1.10;;;;;;;;;;2071011;28;20499;-84
2022/04/04 03:20:21;;;;;;;0.70;0.50;;;;;;;;;;2077514;28;20026;-83
2022/04/04 03:21:40;;;;;;;1.48;0.70;;;;;;;;;;2073855;28;20026;-83
2022/04/04 03:23:00;;;;;;;3.30;0.80;;;;;;;;;;2069040;28;20495;-83
2022/04/04 03:24:19;;;;;;;2.70;0.85;;;;;;;;;;2071027;28;20061;-83
2022/04/04 03:25:38;;;;;;;3.05;0.60;;;;;;;;;;2079005;28;20034;-83
2022/04/04 03:26:57;;;;;;;0.85;0.57;;;;;;;;;;2072980;28;20030;-83
2022/04/04 03:28:16;;;;;;;3.40;0.80;;;;;;;;;;2069773;28;20029;-83
2022/04/04 03:29:34;;;;;;;5.70;1.00;;;;;;;;;;2070061;28;20636;-83
2022/04/04 03:30:53;;;;;;;1.55;0.70;;;;;;;;;;2070252;28;20022;-84
2022/04/04 03:32:12;;;;;;;2.38;0.80;;;;;;;;;;2070740;28;20080;-84
2022/04/04 03:33:32;;;;;;;2.25;0.80;;;;;;;;;;2070542;28;20035;-83
2022/04/04 03:34:51;;;;;;;3.47;0.88;;;;;;;;;;2069925;28;20018;-83
2022/04/04 03:36:10;;;;;;;1.65;0.80;;;;;;;;;;2078317;28;20025;-83
2022/04/04 03:37:32;;;;;;;1.70;0.82;;;;;;;;;;2071837;28;20478;-83
2022/04/04 03:38:51;;;;;;;2.42;0.90;;;;;;;;;;2070104;28;20449;-83
2022/04/04 03:40:12;;;;;;;1.73;0.90;;;;;;;;;;2068956;28;20447;-83
2022/04/04 03:41:31;;;;;;;2.15;0.90;;;;;;;;;;2070868;28;20105;-83
2022/04/04 03:42:53;;;;;;;4.30;0.75;;;;;;;;;;2069073;28;20041;-83
2022/04/04 03:44:12;;;;;;;1.13;0.73;;;;;;;;;;2070748;28;20026;-83
2022/04/04 03:45:31;;;;;;;2.63;1.00;;;;;;;;;;2075801;28;20125;-83
2022/04/04 03:46:50;;;;;;;1.20;1.00;;;;;;;;;;2073663;28;20041;-83
2022/04/04 03:48:09;;;;;;;1.30;1.00;;;;;;;;;;2069610;28;20034;-83
2022/04/04 03:49:29;;;;;;;3.47;1.10;;;;;;;;;;2080084;28;20025;-82
2022/04/04 03:50:51;;;;;;;2.60;1.33;;;;;;;;;;2071929;28;20030;-83
2022/04/04 03:52:11;;;;;;;2.15;1.33;;;;;;;;;;2070419;28;20049;-83
2022/04/04 03:53:31;;;;;;;5.30;1.40;;;;;;;;;;2078268;28;20065;-83
2022/04/04 03:54:50;;;;;;;1.30;1.02;;;;;;;;;;2073126;28;20434;-83
2022/04/04 03:56:11;;;;;;;3.22;1.20;;;;;;;;;;2070844;28;20098;-82
2022/04/04 03:57:30;;;;;;;3.40;1.17;;;;;;;;;;2071175;28;20026;-83
2022/04/04 03:58:50;;;;;;;3.50;1.08;;;;;;;;;;2069549;28;20034;-83
2022/04/04 04:00:09;;;;;;;3.00;1.08;;;;;;;;;;2079653;28;20025;-83
2022/04/04 04:01:30;;;;;;;4.45;0.98;;;;;;;;;;2084578;28;20029;-83
2022/04/04 04:02:49;;;;;;;1.27;1.10;;;;;;;;;;2074190;28;20026;-83
2022/04/04 04:04:08;;;;;;;1.50;1.40;;;;;;;;;;2072911;28;20391;-84
2022/04/04 04:05:27;;;;;;;2.35;1.23;;;;;;;;;;2070884;28;20033;-82
2022/04/04 04:06:46;;;;;;;2.30;1.30;;;;;;;;;;2081358;28;20026;-83
2022/04/04 04:08:06;;;;;;;2.78;0.98;;;;;;;;;;2075862;28;20594;-83
2022/04/04 04:09:26;;;;;;;2.13;1.10;;;;;;;;;;2074540;28;20030;-83
2022/04/04 04:10:45;;;;;;;4.68;1.15;;;;;;;;;;2071979;28;20025;-83
2022/04/04 04:12:05;;;;;;;2.45;1.15;;;;;;;;;;2073467;28;20033;-83
2022/04/04 04:13:23;;;;;;;5.63;1.30;;;;;;;;;;2070670;28;20034;-83
2022/04/04 04:14:43;;;;;;;4.05;1.45;;;;;;;;;;2072123;28;20030;-83
2022/04/04 04:16:05;;;;;;;4.05;1.15;;;;;;;;;;2070003;28;20030;-83
2022/04/04 04:17:24;;;;;;;3.50;0.93;;;;;;;;;;2072674;28;20030;-84
2022/04/04 04:18:43;;;;;;;1.60;1.10;;;;;;;;;;2070413;28;20034;-84
2022/04/04 04:20:23;;;;;;;2.35;1.27;;;;;;;;;;2080403;28;20029;-84
2022/04/04 04:21:43;;;;;;;3.45;1.20;;;;;;;;;;2074376;28;20052;-83
2022/04/04 04:23:03;;;;;;;1.13;1.02;;;;;;;;;;2070476;28;20038;-83
2022/04/04 04:24:22;;;;;;;1.40;1.08;;;;;;;;;;2070055;28;20018;-83
2022/04/04 04:25:42;;;;;;;2.45;1.00;;;;;;;;;;2072942;28;20476;-83
2022/04/04 04:27:01;;;;;;;1.98;1.10;;;;;;;;;;2073321;28;20042;-83
2022/04/04 04:28:19;;;;;;;2.05;1.02;;;;;;;;;;2077148;28;20093;-82
2022/04/04 04:29:38;;;;;;;1.65;1.10;;;;;;;;;;2071758;28;20018;-83
2022/04/04 04:30:58;;;;;;;3.30;1.50;;;;;;;;;;2070171;28;20037;-83
2022/04/04 04:32:17;;;;;;;2.35;1.52;;;;;;;;;;2077984;28;20041;-83
2022/04/04 04:33:36;;;;;;;3.75;1.48;;;;;;;;;;2082765;28;20030;-82
2022/04/04 04:34:55;;;;;;;1.50;1.20;;;;;;;;;;2074153;28;20069;-83
2022/04/04 04:36:14;;;;;;;1.67;1.17;;;;;;;;;;2071468;28;20026;-82
2022/04/04 04:37:33;;;;;;;2.05;1.77;;;;;;;;;;2071427;28;20097;-83
2022/04/04 04:38:52;;;;;;;2.28;1.00;;;;;;;;;;2070619;28;20567;-85
2022/04/04 04:40:12;;;;;;;2.55;1.40;;;;;;;;;;2068105;28;20030;-83
2022/04/04 04:41:32;;;;;;;2.35;1.20;;;;;;;;;;2068513;28;20450;-84
2022/04/04 04:42:51;;;;;;;3.15;1.38;;;;;;;;;;2071021;28;20034;-82
2022/04/04 04:44:11;;;;;;;1.48;1.15;;;;;;;;;;2068427;28;20496;-83
2022/04/04 04:45:30;;;;;;;1.38;1.20;;;;;;;;;;2079309;28;20029;-85
2022/04/04 04:46:49;;;;;;;5.80;1.40;;;;;;;;;;2073926;28;20399;-84
2022/04/04 04:48:08;;;;;;;1.38;1.17;;;;;;;;;;2075972;28;20021;-84
2022/04/04 04:49:27;;;;;;;3.22;1.23;;;;;;;;;;2082274;28;20041;-84
2022/04/04 04:50:47;;;;;;;3.05;1.27;;;;;;;;;;2073388;28;20317;-84
2022/04/04 04:52:09;;;;;;;3.05;1.42;;;;;;;;;;2068281;28;20117;-84
2022/04/04 04:53:28;;;;;;;1.75;1.40;;;;;;;;;;2073030;28;20109;-84
2022/04/04 04:54:47;;;;;;;4.72;1.50;;;;;;;;;;2070250;28;20045;-85
2022/04/04 04:56:06;;;;;;;2.38;1.83;;;;;;;;;;2071389;28;20030;-84
2022/04/04 04:57:26;;;;;;;4.57;1.65;;;;;;;;;;2070261;28;20022;-84
2022/04/04 04:58:45;;;;;;;1.90;1.67;;;;;;;;;;2070126;28;20034;-83
2022/04/04 05:00:05;;;;;;;1.85;1.50;;;;;;;;;;2069048;28;20037;-83
2022/04/04 05:01:24;;;;;;;1.60;1.50;;;;;;;;;;2070282;28;20025;-84
2022/04/04 05:02:47;;;;;;;2.35;1.60;;;;;;;;;;2068519;28;20038;-85
2022/04/04 05:04:06;;;;;;;3.03;1.52;;;;;;;;;;2068889;28;20511;-83
2022/04/04 05:05:25;;;;;;;1.80;1.48;;;;;;;;;;2070146;28;20030;-84
2022/04/04 05:06:48;;;;;;;2.20;2.00;;;;;;;;;;2070826;28;20465;-86
2022/04/04 05:08:08;;;;;;;2.60;1.77;;;;;;;;;;2080936;28;20053;-83
2022/04/04 05:09:26;;;;;;;3.67;1.63;;;;;;;;;;2071917;28;20403;-81
2022/04/04 05:10:46;;;;;;;2.75;1.58;;;;;;;;;;2074133;28;20124;-82
2022/04/04 05:12:06;;;;;;;2.95;2.10;;;;;;;;;;2070056;28;20034;-82
2022/04/04 05:13:27;;;;;;;2.38;1.92;;;;;;;;;;2071903;28;20030;-83
2022/04/04 05:14:46;;;;;;;1.98;1.75;;;;;;;;;;2070478;28;20038;-83
2022/04/04 05:16:09;;;;;;;4.13;2.22;;;;;;;;;;2071696;28;20053;-84
2022/04/04 05:17:28;;;;;;;3.35;1.92;;;;;;;;;;2080009;28;20085;-83
2022/04/04 05:18:50;;;;;;;4.30;1.98;;;;;;;;;;2068912;28;20094;-82
2022/04/04 05:20:09;;;;;;;2.42;1.75;;;;;;;;;;2071083;28;20037;-83
2022/04/04 05:21:30;;;;;;;4.47;2.25;;;;;;;;;;2078647;28;20394;-83
2022/04/04 05:22:49;;;;;;;3.78;2.38;;;;;;;;;;2071729;28;20503;-83
2022/04/04 05:24:08;;;;;;;3.55;2.00;;;;;;;;;;2077446;28;20029;-83
2022/04/04 05:25:28;;;;;;;4.00;2.13;;;;;;;;;;2074904;28;20137;-83
2022/04/04 05:26:47;;;;;;;2.10;1.92;;;;;;;;;;2071645;28;20030;-83
2022/04/04 05:28:10;;;;;;;1.83;1.73;;;;;;;;;;2072495;28;20029;-82
2022/04/04 05:29:30;;;;;;;5.78;2.22;;;;;;;;;;2078839;28;20029;-83
2022/04/04 05:30:49;;;;;;;2.85;1.85;;;;;;;;;;2073927;28;20085;-84
2022/04/04 05:32:08;;;;;;;2.50;2.30;;;;;;;;;;2072751;28;20034;-84
2022/04/04 05:33:27;;;;;;;2.60;2.22;;;;;;;;;;2072341;28;20038;-83
2022/04/04 05:34:47;;;;;;;4.30;2.08;;;;;;;;;;2080209;28;20025;-82
2022/04/04 05:36:07;;;;;;;3.88;2.20;;;;;;;;;;2075968;28;20113;-82
2022/04/04 05:37:26;;;;;;;2.30;2.10;;;;;;;;;;2069959;28;20557;-82
2022/04/04 05:38:45;;;;;;;5.07;3.75;;;;;;;;;;2080071;28;20033;-83
2022/04/04 05:40:08;;;;;;;3.60;3.30;;;;;;;;;;2074072;28;20037;-83
2022/04/04 05:41:30;;;;;;;2.25;2.00;;;;;;;;;;2068595;28;20109;-82
2022/04/04 05:42:49;;;;;;;2.22;2.10;;;;;;;;;;2071187;28;20041;-83
2022/04/04 05:44:08;;;;;;;6.82;2.40;;;;;;;;;;2070202;28;20018;-80
2022/04/04 05:45:27;;;;;;;8.32;2.75;;;;;;;;;;2067532;28;20045;-81
2022/04/04 05:46:47;;;;;;;5.05;2.03;;;;;;;;;;2076792;28;20030;-80
2022/04/04 05:48:07;;;;;;;5.40;2.55;;;;;;;;;;2069768;28;20034;-81
2022/04/04 05:49:26;;;;;;;4.10;2.45;;;;;;;;;;2066200;28;20042;-83
2022/04/04 05:50:45;;;;;;;4.90;2.03;;;;;;;;;;2066723;28;20025;-83
2022/04/04 05:52:04;;;;;;;4.28;2.15;;;;;;;;;;2074244;28;20042;-83
2022/04/04 05:53:23;;;;;;;3.40;2.00;;;;;;;;;;2079223;28;20395;-83
2022/04/04 05:54:57;;;;;;;5.82;2.22;;;;;;;;;;2069200;28;20038;-82
2022/04/04 05:56:16;;;;;;;3.35;2.50;;;;;;;;;;2070645;28;20160;-82
2022/04/04 05:57:38;;;;;;;5.43;2.50;;;;;;;;;;2068072;28;20029;-82
2022/04/04 05:58:57;;;;;;;8.63;2.60;;;;;;;;;;2076418;28;20034;-83
2022/04/04 06:00:16;;;;;;;4.10;2.33;;;;;;;;;;2070108;28;20026;-84
2022/04/04 06:01:36;;;;;;;6.05;2.45;;;;;;;;;;2066878;28;20046;-83
2022/04/04 06:02:55;;;;;;;8.02;2.53;;;;;;;;;;2075196;28;20101;-83
2022/04/04 06:04:14;;;;;;;6.88;2.38;;;;;;;;;;2071271;28;20053;-83
2022/04/04 06:05:34;;;;;;;4.07;2.10;;;;;;;;;;2069130;28;20484;-82
2022/04/04 06:06:56;;;;;;;4.22;2.10;;;;;;;;;;2070529;28;20049;-82
2022/04/04 06:08:16;;;;;;;4.28;2.05;;;;;;;;;;2069394;28;20093;-82
2022/04/04 06:09:35;;;;;;;2.47;2.17;;;;;;;;;;2079132;28;20033;-83
2022/04/04 06:10:54;;;;;;;8.20;2.28;;;;;;;;;;2073176;28;20033;-83
2022/04/04 06:12:13;;;;;;;4.38;2.05;;;;;;;;;;2079019;28;20033;-82
2022/04/04 06:13:32;;;;;;;3.55;2.25;;;;;;;;;;2074083;28;20463;-82
2022/04/04 06:14:51;;;;;;;3.65;2.00;;;;;;;;;;2069171;28;20074;-83
2022/04/04 06:16:10;;;;;;;4.35;2.15;;;;;;;;;;2069856;28;20029;-82
2022/04/04 06:17:29;;;;;;;5.28;2.20;;;;;;;;;;2068908;28;20116;-82
2022/04/04 06:18:50;;;;;;;5.82;1.83;;;;;;;;;;2070878;28;20029;-82
2022/04/04 06:20:09;;;;;;;6.05;2.15;;;;;;;;;;2070484;28;20029;-82
2022/04/04 06:21:28;;;;;;;4.32;1.92;;;;;;;;;;2070736;28;20029;-82
2022/04/04 06:22:47;;;;;;;5.05;2.30;;;;;;;;;;2069929;28;20034;-83
2022/04/04 06:24:06;;;;;;;3.28;2.58;;;;;;;;;;2070719;28;20026;-82
2022/04/04 06:25:26;;;;;;;2.90;2.15;;;;;;;;;;2078153;28;20018;-82
2022/04/04 06:26:46;;;;;;;3.45;2.10;;;;;;;;;;2072757;28;20041;-82
2022/04/04 06:28:06;;;;;;;6.18;2.00;;;;;;;;;;2079515;28;20017;-82
2022/04/04 06:29:25;;;;;;;4.30;2.13;;;;;;;;;;2074265;28;20459;-82
2022/04/04 06:30:44;;;;;;;3.95;1.50;;;;;;;;;;2078752;28;20030;-82
2022/04/04 06:32:04;;;;;;;10.27;1.90;;;;;;;;;;2083398;28;20037;-82
2022/04/04 06:33:22;;;;;;;3.60;1.90;;;;;;;;;;2082343;28;20029;-82
2022/04/04 06:34:41;;;;;;;2.40;1.80;;;;;;;;;;2074034;28;20559;-82
2022/04/04 06:36:00;;;;;;;5.30;2.05;;;;;;;;;;2069725;28;20121;-82
2022/04/04 06:37:20;;;;;;;4.25;2.10;;;;;;;;;;2078448;28;20029;-82
2022/04/04 06:38:41;;;;;;;2.38;1.58;;;;;;;;;;2073392;28;20117;-82
2022/04/04 06:40:00;;;;;;;5.63;1.75;;;;;;;;;;2071822;28;20030;-82
2022/04/04 06:41:19;;;;;;;3.95;2.17;;;;;;;;;;2078740;28;20030;-82
2022/04/04 06:42:39;;;;;;;3.95;2.60;;;;;;;;;;2073638;28;20022;-82
2022/04/04 06:43:58;;;;;;;3.25;2.00;;;;;;;;;;2078091;28;20029;-82
2022/04/04 06:45:17;;;;;;;5.40;1.60;;;;;;;;;;2081171;28;20026;-82
2022/04/04 06:46:36;;;;;;;6.05;2.13;;;;;;;;;;2082574;28;20030;-82
2022/04/04 06:47:55;;;;;;;4.53;1.63;;;;;;;;;;2072218;28;20022;-82
2022/04/04 06:49:14;;;;;;;5.10;2.00;;;;;;;;;;2071927;28;20030;-82
2022/04/04 06:50:33;;;;;;;5.45;2.00;;;;;;;;;;2068861;28;20112;-82
2022/04/04 06:51:52;;;;;;;4.80;2.00;;;;;;;;;;2079251;28;20065;-82
2022/04/04 06:53:11;;;;;;;6.13;2.65;;;;;;;;;;2074248;28;20097;-82
2022/04/04 06:54:30;;;;;;;7.43;2.30;;;;;;;;;;2075542;28;20478;-82
2022/04/04 06:55:49;;;;;;;6.90;2.25;;;;;;;;;;2079048;28;20104;-82
2022/04/04 06:57:08;;;;;;;3.50;2.25;;;;;;;;;;2074985;28;20029;-82
2022/04/04 06:58:27;;;;;;;4.78;2.13;;;;;;;;;;2071895;28;20610;-82
2022/04/04 06:59:46;;;;;;;6.90;2.22;;;;;;;;;;2081344;28;20602;-83
2022/04/04 07:01:06;;;;;;;2.80;2.10;;;;;;;;;;2082422;28;20033;-82
2022/04/04 07:02:25;;;;;;;3.17;1.85;;;;;;;;;;2074670;28;20498;-82
2022/04/04 07:03:44;;;;;;;6.57;2.35;;;;;;;;;;2079515;28;20101;-82
2022/04/04 07:05:05;;;;;;;6.22;2.38;;;;;;;;;;2083219;28;20042;-82
2022/04/04 07:06:24;;;;;;;4.68;1.75;;;;;;;;;;2081843;28;20021;-82
2022/04/04 07:07:43;;;;;;;5.57;2.05;;;;;;;;;;2073194;28;20058;-82
2022/04/04 07:09:02;;;;;;;6.05;1.77;;;;;;;;;;2068716;28;20022;-82
2022/04/04 07:10:22;;;;;;;6.50;1.80;;;;;;;;;;2070878;28;20022;-82
2022/04/04 07:11:41;;;;;;;4.80;1.90;;;;;;;;;;2060890;28;20050;-82
2022/04/04 07:13:00;;;;;;;2.92;1.95;;;;;;;;;;2071436;28;20041;-82
2022/04/04 07:14:19;;;;;;;4.95;2.08;;;;;;;;;;2069286;28;20479;-82
2022/04/04 07:15:39;;;;;;;4.32;1.70;;;;;;;;;;2070105;28;20042;-82
2022/04/04 07:16:58;;;;;;;5.72;2.03;;;;;;;;;;2069605;28;20034;-82
2022/04/04 07:18:18;;;;;;;4.03;2.33;;;;;;;;;;2069886;28;20030;-82
2022/04/04 07:19:37;;;;;;;4.97;2.10;;;;;;;;;;2070155;28;20084;-82
2022/04/04 07:20:56;;;;;;;4.18;1.90;;;;;;;;;;2068892;28;20057;-82
2022/04/04 07:22:16;;;;;;;2.55;1.90;;;;;;;;;;2070392;28;20503;-82
2022/04/04 07:23:35;;;;;;;3.97;1.73;;;;;;;;;;2069944;28;20048;-82
2022/04/04 07:24:54;;;;;;;3.75;2.03;;;;;;;;;;2079017;28;20025;-81
2022/04/04 07:26:18;;;;;;;3.72;1.88;;;;;;;;;;2071531;28;20038;-83
2022/04/04 07:27:40;;;;;;;5.47;1.88;;;;;;;;;;2070896;28;20026;-83
2022/04/04 07:28:59;;;;;;;1.85;1.42;;;;;;;;;;2075342;28;20391;-83
2022/04/04 07:30:19;;;;;;;3.30;1.75;;;;;;;;;;2074457;28;20026;-82
2022/04/04 07:31:38;;;;;;;5.15;2.05;;;;;;;;;;2077408;28;20037;-83
2022/04/04 07:32:57;;;;;;;4.22;1.95;;;;;;;;;;2073662;28;20026;-82
2022/04/04 07:34:16;;;;;;;6.05;2.03;;;;;;;;;;2068256;28;20030;-82
2022/04/04 07:35:35;;;;;;;3.08;1.85;;;;;;;;;;2070896;28;20037;-82
2022/04/04 07:36:54;;;;;;;4.07;2.30;;;;;;;;;;2068171;28;20038;-82
2022/04/04 07:38:13;;;;;;;5.05;2.20;;;;;;;;;;2071210;28;20453;-82
2022/04/04 07:39:33;;;;;;;7.25;2.03;;;;;;;;;;2069186;28;20034;-82
2022/04/04 07:40:53;;;;;;;6.65;2.20;;;;;;;;;;2070440;28;20455;-81
2022/04/04 07:42:13;;;;;;;3.97;2.00;;;;;;;;;;2076858;28;20037;-83
2022/04/04 07:43:32;;;;;;;6.75;2.00;;;;;;;;;;2081053;28;20026;-81
2022/04/04 07:44:51;;;;;;;7.20;2.10;;;;;;;;;;2073026;28;20033;-83
2022/04/04 07:46:10;;;;;;;5.05;2.33;;;;;;;;;;2070168;28;20030;-82
2022/04/04 07:47:29;;;;;;;5.40;2.13;;;;;;;;;;2068476;28;20065;-82
2022/04/04 07:48:48;;;;;;;3.83;1.83;;;;;;;;;;2069846;28;20491;-82
2022/04/04 07:50:08;;;;;;;6.65;2.40;;;;;;;;;;2066693;28;20475;-82
2022/04/04 07:51:27;;;;;;;5.93;2.35;;;;;;;;;;2070774;28;20037;-82
2022/04/04 07:52:47;;;;;;;4.18;1.90;;;;;;;;;;2069384;28;20030;-81
2022/04/04 07:54:06;;;;;;;6.53;2.33;;;;;;;;;;2077729;28;20406;-81
2022/04/04 07:55:25;;;;;;;3.58;2.00;;;;;;;;;;2074010;28;20049;-81
2022/04/04 07:56:44;;;;;;;8.80;2.85;;;;;;;;;;2067593;28;20030;-82
2022/04/04 07:58:03;;;;;;;7.65;2.10;;;;;;;;;;2070619;28;20046;-81
2022/04/04 07:59:23;;;;;;;5.53;2.13;;;;;;;;;;2069175;28;20038;-81
2022/04/04 08:00:42;;;;;;;4.28;1.90;;;;;;;;;;2077688;28;20017;-81